AirNav   ATP
 
 988 users online  

W32 Washington Executive Airport/Hyde Field
Clinton, Maryland, USA

GOING TO CLINTON?


FAA INFORMATION EFFECTIVE 26 APRIL 2018

Location

FAA Identifier: W32
Lat/Long: 38-44-53.7410N / 076-55-58.1410W
38-44.895683N / 076-55.969017W
38.7482614 / -76.9328169
(estimated)
Elevation: 248.7 ft. / 76 m (estimated)
Variation: 11W (2005)
From city: 2 miles SW of CLINTON, MD
Time zone: UTC -4 (UTC -5 during Standard Time)
Zip code: 20735

Airport Operations

Airport use: Open to the public
Activation date: 03/1941
Control tower: no
ARTCC: WASHINGTON CENTER
FSS: LEESBURG FLIGHT SERVICE STATION
NOTAMs facility: DCA (NOTAM-D service available)
Attendance: SAT-SUN 0900-1700L, ALL MON-FRI 0900-1500L
Pattern altitude: 1048.7 ft. MSL
Wind indicator: lighted
Segmented circle: no
Lights: SS-SR
Beacon: white-green (lighted land airport)
Operates sunset to sunrise.

Airport Communications

CTAF/UNICOM: 122.8
POTOMAC APPROACH: 124.7(DC FRZ) 125.65(DC FRZ)
POTOMAC DEPARTURE: 124.7(DC FRZ) 125.65(DC FRZ)
IRONS STAR: 126.4
TIKEE STAR: 120.45
WX ASOS at DCA (8 nm NW): 132.65 (703-412-8140)
WX AWOS-3 at CGS (14 nm N): 121.225 (301-864-5497)
  • UNICOM UNMON.

Nearby radio navigation aids

VOR radial/distance  VOR name  Freq  Var
ADWr231/4.7ANDREWS VORTAC113.1010W
DCAr153/8.2WASHINGTON VOR/DME111.0009W
OTTr296/9.2NOTTINGHAM VORTAC113.7010W
AMLr122/27.3ARMEL VOR/DME113.5008W
BALr218/28.4BALTIMORE VORTAC115.1011W
BRVr048/31.6BROOKE VORTAC114.5009W
PXTr328/37.3PATUXENT VORTAC117.6010W

 
NDB name  Hdg/Dist  Freq  Var  ID
OXONN114/4.633211WDCA -.. -.-. .-
DAVEE067/9.822309WDAA -.. .- .-
GEORGETOWN150/14.132309WGTN --. - -.
ELLICOTT204/33.237111WFND ..-. -. -..
PATUXENT328/37.240010WNHK -. .... -.-
SHANNON050/37.823710WEZF . --.. ..-.

Airport Services

Fuel available: 100LL JET-A
SELF SERVE CREDIT CARD FUELING AVBL 24 HRS.
Parking: tiedowns
Airframe service: MAJOR
Powerplant service: MAJOR
Bottled oxygen: NONE
Bulk oxygen: NONE

Runway Information

Runway 5/23

Dimensions: 3000 x 60 ft. / 914 x 18 m
Surface: asphalt, in fair condition
Runway edge lights: low intensity
RUNWAY 5  RUNWAY 23
Latitude: 38-44.709100N38-45.082267N
Longitude: 076-56.175900W076-55.762117W
Elevation: 238.2 ft.237.2 ft.
Traffic pattern: leftleft
Runway heading: 052 magnetic, 041 true232 magnetic, 221 true
Markings: nonprecision, in good conditionbasic, in good condition
Visual slope indicator: panels that may or may not be lighted, on left (3.50 degrees glide path)panels that may or may not be lighted, on left (4.00 degrees glide path)
Runway end identifier lights: yes
Touchdown point: yes, no lightsyes, no lights
Obstructions: 53 ft. trees, 1407 ft. from runway, 123 ft. left of centerline, 22:1 slope to clear67 ft. trees, 1437 ft. from runway, 138 ft. right of centerline, 18:1 slope to clear

Airport Ownership and Management from official FAA records

Ownership: Privately-owned
Owner: ZACHAIR, LTD.
10275A PISCATAWAY ROAD
CLINTON, MD 20735
Phone 301-297-7290
Manager: STAN FETTER
10275A PISCATAWAY RD
CLINTON, MD 20735
Phone 301-297-7290

Airport Operational Statistics

Aircraft based on the field: 50
Single engine airplanes: 48
Multi engine airplanes: 1
Ultralights: 1
    
Aircraft operations: avg 111/week *
91% local general aviation
5% transient general aviation
4% air taxi
<1% military
* for 12-month period ending 19 September 2017

Additional Remarks

COMPLIANCE WITH CFR 93.335 IS REQUIRED BEFORE PILOTS MAY OPERATE TO/FROM THIS ARPT.
FOR CD CTC POTOMAC APCH AT 866-599-3874.
FOR FRZ FLIGHT PLAN FILING CTC 866-225-7410.
SOFT SHOULDERS ALL TWYS.
RIGHT TFC PAT FOR HELICOPTERS - 849 FT MSL PAT ALT.
+70' POWERLINE 1300' FM AER 23.
RY 05/23 - NO LINE OF SIGHT BETWEEN RY ENDS.
BIRDS & WILDLIFE ON & INVOF ARPT.

Instrument Procedures

NOTE: All procedures below are presented as PDF files. If you need a reader for these files, you should download the free Adobe Reader.

NOT FOR NAVIGATION. Please procure official charts for flight.
FAA instrument procedures published for use from 26 April 2018 at 901Z to 24 May 2018 at 0900Z.

 
STARs - Standard Terminal Arrivals
TIKEE THREE (RNAV)   download (212KB)
 
IAPs - Instrument Approach Procedures
RNAV (GPS) RWY 05   download (151KB)
NOTE: Special Take-Off Minimums/Departure Procedures apply   download (140KB)

Other nearby airports with instrument procedures:

KVKX - Potomac Airfield (1 nm W)
KADW - Joint Base Andrews (5 nm NE)
KDCA - Ronald Reagan Washington National Airport (8 nm NW)
2W5 - Maryland Airport (11 nm SW)
KDAA - Davison Army Airfield (12 nm W)
W00 - Freeway Airport (14 nm NE)
KCGS - College Park Airport (14 nm N)
 
Loc | Ops | Rwys | IFR | FBO | Links
Com | Nav | Svcs | Stats | Notes

AirNav Hotels Sweepstakes
 
Area around W32 (Washington Executive Airport/Hyde Field)
 
Road maps at: MapQuest Bing Google
 
Aerial photo
WARNING: Photo may not be current or correct
Aerial photo of W32 (Washington Executive Airport/Hyde Field)
Photo taken 19-Oct-2016
looking north.

Do you have a better or more recent aerial photo of Washington Executive Airport/Hyde Field that you would like to share? If so, please send us your photo.

 
Sectional chart

 
Airport distance calculator
Flying to Washington Executive Airport/Hyde Field? Find the distance to fly.

From to W32

Sunrise and sunset
Times for 20-May-2018
 Local
(UTC-4)
 Zulu
(UTC)
Morning civil twilight05:2209:22
Sunrise05:5209:52
Sunset20:1600:16
Evening civil twilight20:4600:46

Current date and time
Zulu (UTC)  20-May-2018 19:32:06
Local (UTC-4)  20-May-2018 15:32:06
 
METAR
KVKX SuperAWOS
201855Z AUTO 27007KT 10SM 29/21 A3001
KADW 
5nm NE 
201916Z AUTO 23010KT 10SM -DZ FEW048 28/19 A3001 RMK AO2 DZB16 SLP167
KDCA 
8nm NW 
201852Z 25012G16KT 10SM BKN050 29/18 A3001 RMK AO2 SLP162 T02940183
KDAA 
11nm W 
201856Z AUTO 27005KT 10SM FEW070 30/19 A3001 RMK AO2 SLP165 T03040191
KCGS 
14nm N 
201917Z AUTO 27006KT 10SM SCT050 SCT075 SCT090 30/18 A3000 RMK AO1 T02950180
TAF
KADW 
5nm NE 
201707Z 2017/2123 24012KT 9999 SCT030 QNH2998INS TEMPO 2019/2022 28025G35KT 3200 -TSRA BKN030CB BECMG 2023/2024 VRB06KT 9999 FEW030 QNH3000INS BECMG 2109/2110 VRB06KT 9999 BKN025 QNH3012INS TX30/2021Z TN18/2110Z
KDCA 
8nm NW 
201729Z 2018/2124 27009KT P6SM BKN040 FM210000 29006KT P6SM SCT200 FM210500 36005KT P6SM SCT250 FM211400 06006KT P6SM SCT200 FM212100 12006KT P6SM SCT200
NOTAMs
Click for the latest NOTAMs
NOTAMs are issued by the DoD/FAA and will open in a separate window not controlled by AirNav.

 

 
 

FBO, Fuel Providers, and Aircraft Ground Support

  
 Business Name 
 
 Contact 
 
 Services / Description 
 
Fuel Prices
 
Comments
  
Fetter Aviation 301-297-7388
no information available

If you are affiliated with Fetter Aviation and would like to show here your services, contact info, web link, logo, and more, click here
100LL Jet A
AS $5.29 --- 
FS --- $3.99 
 Updated 14-May-2018
 
   2 read write
AS=Assisted/Self Service
FS=Full service
Update Fuel Prices
 

Would you like to see your business listed on this page?

 If your business provides an interesting product or service to pilots, flight crews, aircraft, or users of the Washington Executive Airport/Hyde Field, you should consider listing it here.  To start the listing process, click on the button below
 
Add a business
 

Other Pages about Washington Executive Airport/Hyde Field

www.hydefield.com
 
Update a link
 
Copyright © AirNav, LLC. All rights reserved. Privacy Policy  Contact